< Typhoon 196218 1962 Season Typhoon 196220 >
Typhoon 196219 (NO-NAME)
General InformationTrack Information on Google Maps || Disaster Info.ResourceGoogle EarthGE AnimationAtom FeedGeoJSON
Detalied Best Track (Time Zone = UTC)
Year Month Day Hour Lat. Long. Pressure (hPa) Wind (kt) Class Image Chart
1962 9 11 06 21.6 166.0 1008 0 2 -- Chart
1962 9 11 12 21.9 164.9 1008 0 2 -- Chart
1962 9 11 18 22.0 163.8 1008 0 2 -- Chart
1962 9 12 00 22.0 162.5 1006 0 2 -- Chart
1962 9 12 06 22.3 161.4 1004 0 2 -- Chart
1962 9 12 12 22.5 160.1 1004 0 2 -- Chart
1962 9 12 18 22.7 158.8 1004 0 2 -- Chart
1962 9 13 00 23.0 157.6 1004 0 2 -- Chart
1962 9 13 06 23.5 156.3 1005 0 2 -- Chart
1962 9 13 12 24.0 155.0 1006 0 2 -- Chart
1962 9 13 18 24.6 153.7 1006 0 2 -- Chart
1962 9 14 00 25.1 152.3 1006 0 2 -- Chart
1962 9 14 06 25.7 151.0 1004 0 2 -- Chart
1962 9 14 12 26.5 149.7 1004 0 2 -- Chart
1962 9 14 18 27.4 148.2 1004 0 2 -- Chart
1962 9 15 00 28.6 146.8 1002 0 2 -- Chart
1962 9 15 06 29.6 145.6 1002 0 2 -- Chart
1962 9 15 12 31.1 144.0 1002 0 9 -- Chart
1962 9 15 18 33.3 143.2 1002 0 9 -- Chart
1962 9 16 00 35.8 142.9 1002 0 2 -- Chart
1962 9 16 06 37.1 143.5 1002 0 2 -- Chart
1962 9 16 12 38.5 145.0 1004 0 6 -- Chart
1962 9 16 18 40.5 148.4 1006 0 6 -- Chart
1962 9 17 00 42.3 152.0 1008 0 6 -- Chart
1962 9 17 06 43.0 155.5 1008 0 6 -- Chart
1962 9 17 12 43.6 159.1 1014 0 6 -- Chart
Japan Meteorological Agency Best Track Data | Correction Date : 1989-06-01
< Typhoon 196218 1962 Season Typhoon 196220 >

Help